createdAt,value
2022-10-24T00:00:24.755Z,16.06
2022-10-24T00:04:27.149Z,16.15
2022-10-24T00:08:29.084Z,16.22
2022-10-24T00:12:31.115Z,16.31
2022-10-24T00:16:33.502Z,16.38
2022-10-24T00:20:37.178Z,16.45
2022-10-24T00:24:39.447Z,16.45
2022-10-24T00:28:41.795Z,16.46
2022-10-24T00:32:43.857Z,16.52
2022-10-24T00:36:46.719Z,16.57
2022-10-24T00:40:48.754Z,16.63
2022-10-24T00:44:53.556Z,16.56
2022-10-24T00:48:55.743Z,16.44
2022-10-24T00:52:57.815Z,16.41
2022-10-24T00:57:14.935Z,16.46
2022-10-24T01:01:17.212Z,16.49
2022-10-24T01:05:21.594Z,16.57
2022-10-24T01:09:36.696Z,16.66
2022-10-24T01:13:57.508Z,16.60
2022-10-24T01:18:02.220Z,16.38
2022-10-24T01:22:32.754Z,16.44
2022-10-24T01:27:12.381Z,16.49
2022-10-24T01:31:51.176Z,16.37
2022-10-24T01:35:59.773Z,16.16
2022-10-24T01:40:09.845Z,16.06
2022-10-24T01:44:16.288Z,16.17
2022-10-24T01:48:22.036Z,16.32
2022-10-24T01:52:27.465Z,16.43
2022-10-24T01:56:29.457Z,16.54
2022-10-24T02:00:31.473Z,16.45
2022-10-24T02:04:36.359Z,16.38
2022-10-24T02:08:43.774Z,16.48
2022-10-24T02:12:54.335Z,16.56
2022-10-24T02:16:59.299Z,16.61
2022-10-24T02:21:12.922Z,16.56
2022-10-24T02:25:26.409Z,16.55
2022-10-24T02:29:50.738Z,16.53
2022-10-24T02:33:55.055Z,16.50
2022-10-24T02:38:13.268Z,16.54
2022-10-24T02:42:16.733Z,16.53
2022-10-24T02:46:20.254Z,16.46
2022-10-24T02:50:23.076Z,16.42
2022-10-24T02:54:25.100Z,16.36
2022-10-24T02:58:27.032Z,16.15
2022-10-24T03:02:29.023Z,16.07
2022-10-24T03:06:30.937Z,16.02
2022-10-24T03:10:32.851Z,16.03
2022-10-24T03:14:35.182Z,16.06
2022-10-24T03:18:37.485Z,16.12
2022-10-24T03:22:40.030Z,16.13
2022-10-24T03:26:41.941Z,16.17
2022-10-24T03:30:43.907Z,16.06
2022-10-24T03:34:45.905Z,15.90
2022-10-24T03:38:47.857Z,15.83
2022-10-24T03:42:49.776Z,15.87
2022-10-24T03:46:51.943Z,15.99
2022-10-24T03:50:53.951Z,16.08
2022-10-24T03:54:55.903Z,16.07
2022-10-24T03:58:57.824Z,16.10
2022-10-24T04:02:59.966Z,16.01
2022-10-24T04:07:02.172Z,15.99
2022-10-24T04:11:05.381Z,16.06
2022-10-24T04:15:07.778Z,16.19
2022-10-24T04:19:10.836Z,16.30
2022-10-24T04:23:12.996Z,16.39
2022-10-24T04:27:15.078Z,16.42
2022-10-24T04:31:19.597Z,16.47
2022-10-24T04:35:28.433Z,16.51
2022-10-24T04:39:30.636Z,16.53
2022-10-24T04:43:32.710Z,16.59
2022-10-24T04:47:34.711Z,16.62
2022-10-24T04:51:36.974Z,16.64
2022-10-24T04:55:38.970Z,16.63
2022-10-24T04:59:40.882Z,16.63
2022-10-24T05:03:42.854Z,16.64
2022-10-24T05:07:46.163Z,16.66
2022-10-24T05:11:48.371Z,16.59
2022-10-24T05:15:53.746Z,16.62
2022-10-24T05:19:55.818Z,16.58
2022-10-24T05:23:57.761Z,16.64
2022-10-24T05:27:59.716Z,16.68
2022-10-24T05:32:01.818Z,16.67
2022-10-24T05:36:04.002Z,16.60
2022-10-24T05:40:10.489Z,16.73
2022-10-24T05:44:13.381Z,16.78
2022-10-24T05:48:15.999Z,16.72
2022-10-24T05:52:18.031Z,16.78
2022-10-24T05:56:20.113Z,16.77
2022-10-24T06:00:22.836Z,16.78
2022-10-24T06:04:25.370Z,16.78
2022-10-24T06:08:27.295Z,16.85
2022-10-24T06:12:29.306Z,16.85
2022-10-24T06:16:31.685Z,16.91
2022-10-24T06:20:33.839Z,17.01
2022-10-24T06:24:38.154Z,17.19
2022-10-24T06:28:41.290Z,17.35
2022-10-24T06:32:44.654Z,17.49
2022-10-24T06:36:46.899Z,17.50
2022-10-24T06:40:48.892Z,17.36
2022-10-24T06:44:51.541Z,17.30
2022-10-24T06:48:55.301Z,17.23
2022-10-24T06:52:57.226Z,17.24
2022-10-24T06:56:59.241Z,17.37
2022-10-24T07:01:08.788Z,17.54
2022-10-24T07:05:12.846Z,17.66
2022-10-24T07:09:15.616Z,17.68
2022-10-24T07:13:17.817Z,17.79
2022-10-24T07:17:20.536Z,17.92
2022-10-24T07:21:28.317Z,18.03
2022-10-24T07:25:30.313Z,18.15
2022-10-24T07:29:32.423Z,18.09
2022-10-24T07:33:37.766Z,18.10
2022-10-24T07:37:40.276Z,18.10
2022-10-24T07:41:42.611Z,18.24
2022-10-24T07:45:49.124Z,18.39
2022-10-24T07:49:54.082Z,18.52
2022-10-24T07:53:58.250Z,18.60
2022-10-24T07:58:00.029Z,18.63
2022-10-24T08:02:02.154Z,18.77
2022-10-24T08:06:09.395Z,18.99
2022-10-24T08:10:13.027Z,19.15
2022-10-24T08:14:14.963Z,19.39
2022-10-24T08:18:17.824Z,19.44
2022-10-24T08:22:19.879Z,19.65
2022-10-24T08:26:23.920Z,19.94
2022-10-24T08:30:25.928Z,20.19
2022-10-24T08:34:28.163Z,20.43
2022-10-24T08:38:30.771Z,20.65
2022-10-24T08:42:33.996Z,20.81
2022-10-24T08:46:49.102Z,20.64
2022-10-24T08:50:56.822Z,20.67
2022-10-24T08:55:25.083Z,20.63
2022-10-24T08:59:36.449Z,20.77
2022-10-24T09:04:00.544Z,20.88
2022-10-24T09:08:23.026Z,21.01
2022-10-24T09:12:26.368Z,21.07
2022-10-24T09:16:28.447Z,21.12
2022-10-24T09:20:33.699Z,21.20
2022-10-24T09:25:04.623Z,21.15
2022-10-24T09:29:06.724Z,21.30
2022-10-24T09:33:35.317Z,21.32
2022-10-24T09:41:48.496Z,21.72
2022-10-24T09:46:12.596Z,21.89
2022-10-24T09:50:22.653Z,22.05
2022-10-24T09:54:28.464Z,22.10
2022-10-24T09:58:34.207Z,22.39
2022-10-24T10:02:37.600Z,22.56
2022-10-24T10:06:45.238Z,22.50
2022-10-24T10:11:06.354Z,22.56
2022-10-24T10:15:19.671Z,22.72
2022-10-24T10:19:22.136Z,22.89
2022-10-24T10:23:27.109Z,22.90
2022-10-24T10:27:41.615Z,22.79
2022-10-24T10:31:47.927Z,22.86
2022-10-24T10:36:28.867Z,23.10
2022-10-24T10:40:53.156Z,23.25
2022-10-24T10:45:19.854Z,23.25
2022-10-24T10:49:32.077Z,23.36
2022-10-24T10:53:50.149Z,23.31
2022-10-24T10:57:55.099Z,23.37
2022-10-24T11:02:13.249Z,23.29
2022-10-24T11:06:41.780Z,23.30
2022-10-24T11:10:50.856Z,23.43
2022-10-24T11:15:22.217Z,23.53
2022-10-24T11:19:41.028Z,23.52
2022-10-24T11:24:05.007Z,23.42
2022-10-24T11:28:14.264Z,23.26
2022-10-24T11:32:32.914Z,23.29
2022-10-24T11:37:00.590Z,23.01
2022-10-24T11:41:58.196Z,23.10
2022-10-24T11:46:16.478Z,23.23
2022-10-24T11:50:39.023Z,23.20
2022-10-24T11:54:53.494Z,23.37
2022-10-24T11:58:59.845Z,23.47
2022-10-24T12:03:11.035Z,23.71
2022-10-24T12:07:28.171Z,23.77
2022-10-24T12:11:57.809Z,23.99
2022-10-24T12:16:39.650Z,24.19
2022-10-24T12:20:42.290Z,24.33
2022-10-24T12:24:44.343Z,24.45
2022-10-24T12:29:01.493Z,24.38
2022-10-24T12:33:03.543Z,24.49
2022-10-24T12:37:18.639Z,24.29
2022-10-24T12:41:32.928Z,24.04
2022-10-24T12:45:35.060Z,24.01
2022-10-24T12:49:37.289Z,24.19
2022-10-24T12:54:00.979Z,24.10
2022-10-24T12:58:04.902Z,24.21
2022-10-24T13:02:16.044Z,24.13
2022-10-24T13:06:45.451Z,24.24
2022-10-24T13:11:07.455Z,24.28
2022-10-24T13:15:36.737Z,24.46
2022-10-24T13:19:39.224Z,24.26
2022-10-24T13:23:46.189Z,24.22
2022-10-24T13:28:19.989Z,24.19
2022-10-24T13:32:24.384Z,24.21
2022-10-24T13:36:31.410Z,24.26
2022-10-24T13:40:34.119Z,24.52
2022-10-24T13:44:45.558Z,24.49
2022-10-24T13:48:48.988Z,24.22
2022-10-24T13:52:54.918Z,24.23
2022-10-24T13:56:59.807Z,24.15
2022-10-24T14:01:07.590Z,23.86
2022-10-24T14:05:22.829Z,23.81
2022-10-24T14:09:24.760Z,23.89
2022-10-24T14:13:29.918Z,23.95
2022-10-24T14:17:35.862Z,23.89
2022-10-24T14:21:46.182Z,23.85
2022-10-24T14:25:55.689Z,23.78
2022-10-24T14:30:03.378Z,23.74
2022-10-24T14:34:06.608Z,23.69
2022-10-24T14:38:14.962Z,23.64
2022-10-24T14:42:18.488Z,23.67
2022-10-24T14:46:32.523Z,23.70
2022-10-24T14:50:45.403Z,23.65
2022-10-24T14:55:04.366Z,23.68
2022-10-24T14:59:17.156Z,23.57
2022-10-24T15:03:19.178Z,23.35
2022-10-24T15:07:37.436Z,23.19
2022-10-24T15:12:01.056Z,23.08
2022-10-24T15:16:03.083Z,23.00
2022-10-24T15:20:05.567Z,22.95
2022-10-24T15:24:20.455Z,22.77
2022-10-24T15:28:45.362Z,22.71
2022-10-24T15:32:49.372Z,22.53
2022-10-24T15:36:53.008Z,22.42
2022-10-24T15:40:55.442Z,22.28
2022-10-24T15:44:58.212Z,22.09
2022-10-24T15:49:00.485Z,21.96
2022-10-24T15:53:04.538Z,21.94
2022-10-24T15:57:06.463Z,21.68
2022-10-24T16:01:22.685Z,21.43
2022-10-24T16:05:30.986Z,21.38
2022-10-24T16:09:32.927Z,21.28
2022-10-24T16:13:34.914Z,21.06
2022-10-24T16:17:37.049Z,20.99
2022-10-24T16:21:41.111Z,20.63
2022-10-24T16:25:43.367Z,20.26
2022-10-24T16:29:45.740Z,19.98
2022-10-24T16:33:47.936Z,19.79
2022-10-24T16:37:51.065Z,19.64
2022-10-24T16:41:54.463Z,19.54
2022-10-24T16:46:01.679Z,19.42
2022-10-24T16:50:04.851Z,19.37
2022-10-24T16:54:06.838Z,19.33
2022-10-24T16:58:08.870Z,19.25
2022-10-24T17:02:14.393Z,19.21
2022-10-24T17:06:16.528Z,19.22
2022-10-24T17:10:22.119Z,19.07
2022-10-24T17:14:28.124Z,19.05
2022-10-24T17:18:30.137Z,18.98
2022-10-24T17:26:35.589Z,18.86
2022-10-24T17:30:37.596Z,18.77
2022-10-24T17:34:41.956Z,18.70
2022-10-24T17:38:52.712Z,18.71
2022-10-24T17:42:55.137Z,18.52
2022-10-24T17:46:58.324Z,18.31
2022-10-24T17:51:02.267Z,18.26
2022-10-24T17:55:04.934Z,18.19
2022-10-24T17:59:06.980Z,18.16
2022-10-24T18:03:09.039Z,18.02
2022-10-24T18:07:11.103Z,18.00
2022-10-24T18:11:14.596Z,17.90
2022-10-24T18:15:21.411Z,17.81
2022-10-24T18:19:29.440Z,17.69
2022-10-24T18:23:38.796Z,17.54
2022-10-24T18:27:41.736Z,17.56
2022-10-24T18:31:46.445Z,17.59
2022-10-24T18:35:55.508Z,17.50
2022-10-24T18:40:08.523Z,17.37
2022-10-24T18:44:25.963Z,17.25
2022-10-24T18:48:31.828Z,17.26
2022-10-24T18:52:44.476Z,17.26
2022-10-24T18:56:47.805Z,17.16
2022-10-24T19:01:08.911Z,16.83
2022-10-24T19:05:18.480Z,16.86
2022-10-24T19:09:25.880Z,16.93
2022-10-24T19:13:28.149Z,16.79
2022-10-24T19:17:30.345Z,16.73
2022-10-24T19:21:32.449Z,16.76
2022-10-24T19:25:34.759Z,16.67
2022-10-24T19:29:37.089Z,16.72
2022-10-24T19:33:40.301Z,16.47
2022-10-24T19:37:45.826Z,16.26
2022-10-24T19:41:48.732Z,16.28
2022-10-24T19:46:07.586Z,16.27
2022-10-24T19:50:17.642Z,15.97
2022-10-24T19:54:19.917Z,16.07
2022-10-24T19:58:26.039Z,16.18
2022-10-24T20:02:28.528Z,16.21
2022-10-24T20:06:31.245Z,16.20
2022-10-24T20:10:33.286Z,16.17
2022-10-24T20:14:35.364Z,16.20
2022-10-24T20:18:39.113Z,16.09
2022-10-24T20:22:44.538Z,16.04
2022-10-24T20:26:50.516Z,16.04
2022-10-24T20:30:52.967Z,16.01
2022-10-24T20:34:55.081Z,15.96
2022-10-24T20:39:01.011Z,15.89
2022-10-24T20:43:04.735Z,15.87
2022-10-24T20:47:06.762Z,15.83
2022-10-24T20:51:13.752Z,15.79
2022-10-24T20:55:25.334Z,15.78
2022-10-24T20:59:38.055Z,15.75
2022-10-24T21:03:40.539Z,15.73
2022-10-24T21:07:42.728Z,15.78
2022-10-24T21:11:44.762Z,15.74
2022-10-24T21:15:46.820Z,15.78
2022-10-24T21:19:48.843Z,15.65
2022-10-24T21:23:55.496Z,15.72
2022-10-24T21:27:57.413Z,15.65
2022-10-24T21:31:59.420Z,15.50
2022-10-24T21:36:06.310Z,15.47
2022-10-24T21:40:08.872Z,15.48
2022-10-24T21:44:10.862Z,15.42
2022-10-24T21:48:15.713Z,15.48
2022-10-24T21:52:17.975Z,15.49
2022-10-24T21:56:22.472Z,15.55
2022-10-24T22:00:24.592Z,15.57
2022-10-24T22:04:26.824Z,15.64
2022-10-24T22:08:28.726Z,15.58
2022-10-24T22:12:30.762Z,15.51
2022-10-24T22:16:33.296Z,15.39
2022-10-24T22:20:35.254Z,15.32
2022-10-24T22:24:37.386Z,15.27
2022-10-24T22:28:39.460Z,15.37
2022-10-24T22:32:41.511Z,15.36
2022-10-24T22:37:16.195Z,15.41
2022-10-24T22:41:18.728Z,15.34
2022-10-24T22:45:21.710Z,15.25
2022-10-24T22:49:38.954Z,15.17
2022-10-24T22:53:41.471Z,15.20
2022-10-24T22:57:43.748Z,15.20
2022-10-24T23:01:59.490Z,15.20
2022-10-24T23:06:12.723Z,15.20
2022-10-24T23:10:20.220Z,15.18
2022-10-24T23:14:22.468Z,15.10
2022-10-24T23:18:24.978Z,15.10
2022-10-24T23:22:32.749Z,15.02
2022-10-24T23:26:44.901Z,15.02
2022-10-24T23:30:47.089Z,14.98
2022-10-24T23:34:50.360Z,14.92
2022-10-24T23:38:52.655Z,14.91
2022-10-24T23:42:56.036Z,14.86
2022-10-24T23:47:17.085Z,14.82
2022-10-24T23:51:25.531Z,14.72
2022-10-24T23:55:28.025Z,14.73
2022-10-24T23:59:30.007Z,14.74
